Terminal Aerodrome Forecast
Issued by NWS

Home | Current Version | Previous Version | Text Only | Print | Product List | Glossary On
Versions: 1 2 3 4 5 6 7 8 9 10 11 12 13 14 15
615
FTUS42 KTBW 052330
TAFPGD
TAF
KPGD 052330Z 0600/0624 29010G16KT P6SM FEW040 BKN070
     FM060200 30008KT P6SM SKC
     FM060900 36006KT P6SM FEW060
     FM061500 34010KT P6SM SKC
     FM061800 30014G22KT P6SM SKC=

USA.gov is the U.S. government's official web portal to all federal, state and local government web resources and services.